sensor_id;sensor_type;location;lat;lon;timestamp;P1;durP1;ratioP1;P2;durP2;ratioP2
35576;SDS011;21680;52.400;16.920;2022-11-15T00:00:25;121.00;;;46.20;;
35576;SDS011;21680;52.400;16.920;2022-11-15T00:02:54;97.60;;;40.00;;
35576;SDS011;21680;52.400;16.920;2022-11-15T00:05:20;120.60;;;45.50;;
35576;SDS011;21680;52.400;16.920;2022-11-15T00:07:46;116.50;;;45.50;;
35576;SDS011;21680;52.400;16.920;2022-11-15T00:10:11;119.80;;;42.80;;
35576;SDS011;21680;52.400;16.920;2022-11-15T00:12:37;105.50;;;42.90;;
35576;SDS011;21680;52.400;16.920;2022-11-15T00:15:02;114.50;;;44.20;;
35576;SDS011;21680;52.400;16.920;2022-11-15T00:17:28;117.40;;;45.20;;
35576;SDS011;21680;52.400;16.920;2022-11-15T00:19:53;124.90;;;44.90;;
35576;SDS011;21680;52.400;16.920;2022-11-15T00:22:18;116.70;;;45.20;;
35576;SDS011;21680;52.400;16.920;2022-11-15T00:24:44;126.20;;;45.90;;
35576;SDS011;21680;52.400;16.920;2022-11-15T00:27:09;120.40;;;46.50;;
35576;SDS011;21680;52.400;16.920;2022-11-15T00:29:34;111.20;;;42.10;;
35576;SDS011;21680;52.400;16.920;2022-11-15T00:31:59;111.60;;;42.80;;
35576;SDS011;21680;52.400;16.920;2022-11-15T00:34:25;106.60;;;43.20;;
35576;SDS011;21680;52.400;16.920;2022-11-15T00:36:50;115.90;;;44.70;;
35576;SDS011;21680;52.400;16.920;2022-11-15T00:39:15;126.90;;;46.10;;
35576;SDS011;21680;52.400;16.920;2022-11-15T00:41:40;123.70;;;46.50;;
35576;SDS011;21680;52.400;16.920;2022-11-15T00:44:06;119.00;;;43.50;;
35576;SDS011;21680;52.400;16.920;2022-11-15T00:46:31;115.70;;;44.30;;
35576;SDS011;21680;52.400;16.920;2022-11-15T00:48:56;106.60;;;42.30;;
35576;SDS011;21680;52.400;16.920;2022-11-15T00:51:22;116.30;;;47.50;;
35576;SDS011;21680;52.400;16.920;2022-11-15T00:53:47;122.10;;;44.90;;
35576;SDS011;21680;52.400;16.920;2022-11-15T00:56:12;120.40;;;46.60;;
35576;SDS011;21680;52.400;16.920;2022-11-15T00:58:38;119.20;;;45.80;;
35576;SDS011;21680;52.400;16.920;2022-11-15T01:01:10;111.80;;;45.20;;
35576;SDS011;21680;52.400;16.920;2022-11-15T01:03:38;121.90;;;46.10;;
35576;SDS011;21680;52.400;16.920;2022-11-15T01:06:04;124.50;;;45.50;;
35576;SDS011;21680;52.400;16.920;2022-11-15T01:08:30;115.30;;;44.50;;
35576;SDS011;21680;52.400;16.920;2022-11-15T01:11:03;128.50;;;47.50;;
35576;SDS011;21680;52.400;16.920;2022-11-15T01:13:31;127.00;;;46.10;;
35576;SDS011;21680;52.400;16.920;2022-11-15T01:15:58;115.10;;;44.30;;
35576;SDS011;21680;52.400;16.920;2022-11-15T01:18:24;111.90;;;45.30;;
35576;SDS011;21680;52.400;16.920;2022-11-15T01:20:52;122.40;;;44.10;;
35576;SDS011;21680;52.400;16.920;2022-11-15T01:23:17;116.10;;;45.30;;
35576;SDS011;21680;52.400;16.920;2022-11-15T01:25:43;111.80;;;43.80;;
35576;SDS011;21680;52.400;16.920;2022-11-15T01:28:08;108.70;;;42.90;;
35576;SDS011;21680;52.400;16.920;2022-11-15T01:30:33;114.00;;;43.30;;
35576;SDS011;21680;52.400;16.920;2022-11-15T01:33:01;111.80;;;42.90;;
35576;SDS011;21680;52.400;16.920;2022-11-15T01:35:26;108.10;;;42.40;;
35576;SDS011;21680;52.400;16.920;2022-11-15T01:37:52;118.60;;;42.30;;
35576;SDS011;21680;52.400;16.920;2022-11-15T01:40:17;107.50;;;41.70;;
35576;SDS011;21680;52.400;16.920;2022-11-15T01:42:42;117.60;;;43.20;;
35576;SDS011;21680;52.400;16.920;2022-11-15T01:45:12;109.10;;;43.40;;
35576;SDS011;21680;52.400;16.920;2022-11-15T01:50:09;108.20;;;41.30;;
35576;SDS011;21680;52.400;16.920;2022-11-15T01:52:37;105.00;;;40.30;;
35576;SDS011;21680;52.400;16.920;2022-11-15T01:57:32;96.60;;;40.00;;
35576;SDS011;21680;52.400;16.920;2022-11-15T01:59:59;104.30;;;39.60;;
35576;SDS011;21680;52.400;16.920;2022-11-15T02:02:26;100.90;;;41.20;;
35576;SDS011;21680;52.400;16.920;2022-11-15T02:04:51;98.90;;;38.90;;
35576;SDS011;21680;52.400;16.920;2022-11-15T02:07:17;96.30;;;40.30;;
35576;SDS011;21680;52.400;16.920;2022-11-15T02:09:45;98.90;;;42.20;;
35576;SDS011;21680;52.400;16.920;2022-11-15T02:12:11;100.70;;;39.70;;
35576;SDS011;21680;52.400;16.920;2022-11-15T02:14:40;89.70;;;37.70;;
35576;SDS011;21680;52.400;16.920;2022-11-15T02:17:19;94.40;;;37.30;;
35576;SDS011;21680;52.400;16.920;2022-11-15T02:28:38;80.10;;;36.40;;
35576;SDS011;21680;52.400;16.920;2022-11-15T02:39:23;85.30;;;38.00;;
35576;SDS011;21680;52.400;16.920;2022-11-15T02:42:07;90.60;;;38.10;;
35576;SDS011;21680;52.400;16.920;2022-11-15T02:44:56;81.30;;;35.80;;
35576;SDS011;21680;52.400;16.920;2022-11-15T02:47:27;89.20;;;38.90;;
35576;SDS011;21680;52.400;16.920;2022-11-15T02:50:06;82.30;;;36.70;;
35576;SDS011;21680;52.400;16.920;2022-11-15T02:52:35;102.40;;;39.90;;
35576;SDS011;21680;52.400;16.920;2022-11-15T02:55:00;85.20;;;36.90;;
35576;SDS011;21680;52.400;16.920;2022-11-15T03:00:21;85.00;;;37.00;;
35576;SDS011;21680;52.400;16.920;2022-11-15T03:05:38;92.90;;;38.20;;
35576;SDS011;21680;52.400;16.920;2022-11-15T03:08:42;90.40;;;36.50;;
35576;SDS011;21680;52.400;16.920;2022-11-15T03:13:39;92.40;;;37.00;;
35576;SDS011;21680;52.400;16.920;2022-11-15T03:16:10;95.80;;;40.00;;
35576;SDS011;21680;52.400;16.920;2022-11-15T03:18:42;83.90;;;36.10;;
35576;SDS011;21680;52.400;16.920;2022-11-15T03:21:11;96.80;;;38.60;;
35576;SDS011;21680;52.400;16.920;2022-11-15T03:23:39;92.80;;;39.30;;
35576;SDS011;21680;52.400;16.920;2022-11-15T03:26:06;107.10;;;42.20;;
35576;SDS011;21680;52.400;16.920;2022-11-15T03:28:45;92.60;;;38.90;;
35576;SDS011;21680;52.400;16.920;2022-11-15T03:31:14;90.30;;;39.30;;
35576;SDS011;21680;52.400;16.920;2022-11-15T03:34:00;94.60;;;40.00;;
35576;SDS011;21680;52.400;16.920;2022-11-15T03:36:29;94.90;;;40.90;;
35576;SDS011;21680;52.400;16.920;2022-11-15T03:38:58;88.80;;;36.90;;
35576;SDS011;21680;52.400;16.920;2022-11-15T03:41:39;100.00;;;39.90;;
35576;SDS011;21680;52.400;16.920;2022-11-15T03:44:26;95.00;;;41.20;;
35576;SDS011;21680;52.400;16.920;2022-11-15T03:47:07;92.80;;;37.90;;
35576;SDS011;21680;52.400;16.920;2022-11-15T03:49:59;84.00;;;35.00;;
35576;SDS011;21680;52.400;16.920;2022-11-15T03:52:30;88.30;;;37.80;;
35576;SDS011;21680;52.400;16.920;2022-11-15T03:54:59;94.50;;;39.50;;
35576;SDS011;21680;52.400;16.920;2022-11-15T03:57:26;85.80;;;35.30;;
35576;SDS011;21680;52.400;16.920;2022-11-15T03:59:52;85.10;;;35.90;;
35576;SDS011;21680;52.400;16.920;2022-11-15T04:02:18;92.10;;;37.50;;
35576;SDS011;21680;52.400;16.920;2022-11-15T04:04:43;87.40;;;37.60;;
35576;SDS011;21680;52.400;16.920;2022-11-15T04:07:09;82.50;;;37.40;;
35576;SDS011;21680;52.400;16.920;2022-11-15T04:09:34;87.00;;;36.10;;
35576;SDS011;21680;52.400;16.920;2022-11-15T04:12:20;100.40;;;40.10;;
35576;SDS011;21680;52.400;16.920;2022-11-15T04:14:55;84.10;;;37.40;;
35576;SDS011;21680;52.400;16.920;2022-11-15T04:17:45;90.40;;;36.50;;
35576;SDS011;21680;52.400;16.920;2022-11-15T04:20:17;82.00;;;37.50;;
35576;SDS011;21680;52.400;16.920;2022-11-15T04:23:04;87.80;;;37.40;;
35576;SDS011;21680;52.400;16.920;2022-11-15T04:25:51;91.20;;;36.00;;
35576;SDS011;21680;52.400;16.920;2022-11-15T04:28:19;87.90;;;37.80;;
35576;SDS011;21680;52.400;16.920;2022-11-15T04:30:44;83.90;;;37.20;;
35576;SDS011;21680;52.400;16.920;2022-11-15T04:33:10;84.60;;;36.70;;
35576;SDS011;21680;52.400;16.920;2022-11-15T04:35:35;88.20;;;39.20;;
35576;SDS011;21680;52.400;16.920;2022-11-15T04:38:01;79.70;;;35.60;;
35576;SDS011;21680;52.400;16.920;2022-11-15T04:40:28;82.60;;;36.20;;
35576;SDS011;21680;52.400;16.920;2022-11-15T04:42:53;92.60;;;37.90;;
35576;SDS011;21680;52.400;16.920;2022-11-15T04:45:20;87.40;;;35.30;;
35576;SDS011;21680;52.400;16.920;2022-11-15T04:47:45;93.00;;;38.50;;
35576;SDS011;21680;52.400;16.920;2022-11-15T04:50:12;80.70;;;34.50;;
35576;SDS011;21680;52.400;16.920;2022-11-15T04:52:40;86.70;;;36.70;;
35576;SDS011;21680;52.400;16.920;2022-11-15T04:55:07;87.60;;;37.00;;
35576;SDS011;21680;52.400;16.920;2022-11-15T04:57:34;88.20;;;38.90;;
35576;SDS011;21680;52.400;16.920;2022-11-15T05:00:00;96.80;;;37.90;;
35576;SDS011;21680;52.400;16.920;2022-11-15T05:02:27;84.20;;;35.90;;
35576;SDS011;21680;52.400;16.920;2022-11-15T05:05:13;89.40;;;39.00;;
35576;SDS011;21680;52.400;16.920;2022-11-15T05:07:38;92.30;;;38.00;;
35576;SDS011;21680;52.400;16.920;2022-11-15T05:10:03;85.80;;;37.90;;
35576;SDS011;21680;52.400;16.920;2022-11-15T05:12:29;94.20;;;37.70;;
35576;SDS011;21680;52.400;16.920;2022-11-15T05:14:54;88.50;;;36.40;;
35576;SDS011;21680;52.400;16.920;2022-11-15T05:17:19;98.20;;;38.50;;
35576;SDS011;21680;52.400;16.920;2022-11-15T05:19:45;89.60;;;37.60;;
35576;SDS011;21680;52.400;16.920;2022-11-15T05:22:10;88.20;;;37.10;;
35576;SDS011;21680;52.400;16.920;2022-11-15T05:24:35;87.20;;;37.60;;
35576;SDS011;21680;52.400;16.920;2022-11-15T05:27:00;93.20;;;38.60;;
35576;SDS011;21680;52.400;16.920;2022-11-15T05:29:26;94.70;;;37.20;;
35576;SDS011;21680;52.400;16.920;2022-11-15T05:31:51;97.00;;;38.40;;
35576;SDS011;21680;52.400;16.920;2022-11-15T05:34:16;95.80;;;40.10;;
35576;SDS011;21680;52.400;16.920;2022-11-15T05:36:43;97.00;;;41.60;;
35576;SDS011;21680;52.400;16.920;2022-11-15T05:39:12;88.20;;;37.10;;
35576;SDS011;21680;52.400;16.920;2022-11-15T05:41:40;94.00;;;38.70;;
35576;SDS011;21680;52.400;16.920;2022-11-15T05:44:07;83.80;;;36.00;;
35576;SDS011;21680;52.400;16.920;2022-11-15T05:46:35;91.00;;;39.10;;
35576;SDS011;21680;52.400;16.920;2022-11-15T05:49:04;88.70;;;39.00;;
35576;SDS011;21680;52.400;16.920;2022-11-15T05:51:32;92.00;;;36.90;;
35576;SDS011;21680;52.400;16.920;2022-11-15T05:53:59;86.00;;;37.30;;
35576;SDS011;21680;52.400;16.920;2022-11-15T05:56:25;90.50;;;37.90;;
35576;SDS011;21680;52.400;16.920;2022-11-15T05:58:51;94.20;;;41.60;;
35576;SDS011;21680;52.400;16.920;2022-11-15T06:01:19;93.00;;;38.10;;
35576;SDS011;21680;52.400;16.920;2022-11-15T06:03:44;89.70;;;38.20;;
35576;SDS011;21680;52.400;16.920;2022-11-15T06:06:09;95.40;;;39.40;;
35576;SDS011;21680;52.400;16.920;2022-11-15T06:08:34;94.20;;;40.30;;
35576;SDS011;21680;52.400;16.920;2022-11-15T06:11:03;91.80;;;39.80;;
35576;SDS011;21680;52.400;16.920;2022-11-15T06:13:31;86.30;;;39.10;;
35576;SDS011;21680;52.400;16.920;2022-11-15T06:15:57;92.20;;;38.30;;
35576;SDS011;21680;52.400;16.920;2022-11-15T06:18:23;84.90;;;37.50;;
35576;SDS011;21680;52.400;16.920;2022-11-15T06:20:48;91.60;;;39.10;;
35576;SDS011;21680;52.400;16.920;2022-11-15T06:23:13;93.70;;;40.20;;
35576;SDS011;21680;52.400;16.920;2022-11-15T06:25:39;95.10;;;41.00;;
35576;SDS011;21680;52.400;16.920;2022-11-15T06:28:04;95.00;;;40.00;;
35576;SDS011;21680;52.400;16.920;2022-11-15T06:30:29;99.10;;;38.40;;
35576;SDS011;21680;52.400;16.920;2022-11-15T06:32:58;96.40;;;38.60;;
35576;SDS011;21680;52.400;16.920;2022-11-15T06:35:25;87.10;;;35.80;;
35576;SDS011;21680;52.400;16.920;2022-11-15T06:37:50;94.40;;;39.30;;
35576;SDS011;21680;52.400;16.920;2022-11-15T06:40:16;98.00;;;37.90;;
35576;SDS011;21680;52.400;16.920;2022-11-15T06:42:41;94.90;;;38.30;;
35576;SDS011;21680;52.400;16.920;2022-11-15T06:45:06;88.00;;;37.70;;
35576;SDS011;21680;52.400;16.920;2022-11-15T06:47:32;98.70;;;38.10;;
35576;SDS011;21680;52.400;16.920;2022-11-15T06:49:58;99.50;;;38.70;;
35576;SDS011;21680;52.400;16.920;2022-11-15T06:52:23;94.20;;;39.60;;
35576;SDS011;21680;52.400;16.920;2022-11-15T06:54:48;95.00;;;38.30;;
35576;SDS011;21680;52.400;16.920;2022-11-15T06:57:14;92.70;;;36.50;;
35576;SDS011;21680;52.400;16.920;2022-11-15T06:59:39;88.50;;;38.20;;
35576;SDS011;21680;52.400;16.920;2022-11-15T07:02:05;84.30;;;37.10;;
35576;SDS011;21680;52.400;16.920;2022-11-15T07:04:30;90.50;;;37.20;;
35576;SDS011;21680;52.400;16.920;2022-11-15T07:06:55;92.80;;;40.00;;
35576;SDS011;21680;52.400;16.920;2022-11-15T07:09:21;91.50;;;36.80;;
35576;SDS011;21680;52.400;16.920;2022-11-15T07:11:46;91.70;;;35.50;;
35576;SDS011;21680;52.400;16.920;2022-11-15T07:14:11;83.60;;;35.80;;
35576;SDS011;21680;52.400;16.920;2022-11-15T07:16:37;94.70;;;35.80;;
35576;SDS011;21680;52.400;16.920;2022-11-15T07:19:02;85.80;;;36.70;;
35576;SDS011;21680;52.400;16.920;2022-11-15T07:21:28;85.80;;;37.80;;
35576;SDS011;21680;52.400;16.920;2022-11-15T07:23:54;86.00;;;34.20;;
35576;SDS011;21680;52.400;16.920;2022-11-15T07:26:19;89.50;;;36.20;;
35576;SDS011;21680;52.400;16.920;2022-11-15T07:28:45;79.40;;;33.70;;
35576;SDS011;21680;52.400;16.920;2022-11-15T07:31:10;81.20;;;34.30;;
35576;SDS011;21680;52.400;16.920;2022-11-15T07:33:35;82.20;;;36.20;;
35576;SDS011;21680;52.400;16.920;2022-11-15T07:36:01;91.10;;;36.30;;
35576;SDS011;21680;52.400;16.920;2022-11-15T07:38:28;87.10;;;37.60;;
35576;SDS011;21680;52.400;16.920;2022-11-15T07:40:58;78.90;;;35.90;;
35576;SDS011;21680;52.400;16.920;2022-11-15T07:43:24;91.20;;;38.10;;
35576;SDS011;21680;52.400;16.920;2022-11-15T07:45:50;93.70;;;38.70;;
35576;SDS011;21680;52.400;16.920;2022-11-15T07:48:16;92.50;;;38.60;;
35576;SDS011;21680;52.400;16.920;2022-11-15T07:50:41;91.80;;;39.10;;
35576;SDS011;21680;52.400;16.920;2022-11-15T07:53:09;92.10;;;39.70;;
35576;SDS011;21680;52.400;16.920;2022-11-15T07:55:35;91.80;;;37.90;;
35576;SDS011;21680;52.400;16.920;2022-11-15T07:58:01;89.50;;;41.50;;
35576;SDS011;21680;52.400;16.920;2022-11-15T08:00:28;86.00;;;38.40;;
35576;SDS011;21680;52.400;16.920;2022-11-15T08:03:00;80.80;;;35.80;;
35576;SDS011;21680;52.400;16.920;2022-11-15T08:05:28;99.10;;;39.70;;
35576;SDS011;21680;52.400;16.920;2022-11-15T08:07:57;86.50;;;37.60;;
35576;SDS011;21680;52.400;16.920;2022-11-15T08:10:22;89.80;;;37.20;;
35576;SDS011;21680;52.400;16.920;2022-11-15T08:12:47;97.80;;;39.20;;
35576;SDS011;21680;52.400;16.920;2022-11-15T08:15:13;92.50;;;38.70;;
35576;SDS011;21680;52.400;16.920;2022-11-15T08:17:39;84.70;;;37.00;;
35576;SDS011;21680;52.400;16.920;2022-11-15T08:20:04;93.80;;;39.50;;
35576;SDS011;21680;52.400;16.920;2022-11-15T08:22:30;86.00;;;37.60;;
35576;SDS011;21680;52.400;16.920;2022-11-15T08:24:55;85.60;;;37.40;;
35576;SDS011;21680;52.400;16.920;2022-11-15T08:27:20;97.60;;;38.10;;
35576;SDS011;21680;52.400;16.920;2022-11-15T08:29:47;84.30;;;36.40;;
35576;SDS011;21680;52.400;16.920;2022-11-15T08:32:13;101.00;;;40.40;;
35576;SDS011;21680;52.400;16.920;2022-11-15T08:34:38;88.10;;;37.30;;
35576;SDS011;21680;52.400;16.920;2022-11-15T08:37:03;113.80;;;38.80;;
35576;SDS011;21680;52.400;16.920;2022-11-15T08:39:29;115.00;;;41.80;;
35576;SDS011;21680;52.400;16.920;2022-11-15T08:41:55;86.40;;;36.70;;
35576;SDS011;21680;52.400;16.920;2022-11-15T08:44:20;92.80;;;40.60;;
35576;SDS011;21680;52.400;16.920;2022-11-15T08:46:46;108.70;;;42.80;;
35576;SDS011;21680;52.400;16.920;2022-11-15T08:49:11;105.00;;;41.50;;
35576;SDS011;21680;52.400;16.920;2022-11-15T08:51:37;104.10;;;42.30;;
35576;SDS011;21680;52.400;16.920;2022-11-15T08:54:02;98.00;;;39.60;;
35576;SDS011;21680;52.400;16.920;2022-11-15T08:56:27;110.60;;;43.50;;
35576;SDS011;21680;52.400;16.920;2022-11-15T08:58:52;96.60;;;39.30;;
35576;SDS011;21680;52.400;16.920;2022-11-15T09:01:19;100.70;;;42.90;;
35576;SDS011;21680;52.400;16.920;2022-11-15T09:03:46;109.30;;;44.60;;
35576;SDS011;21680;52.400;16.920;2022-11-15T09:06:11;112.10;;;46.90;;
35576;SDS011;21680;52.400;16.920;2022-11-15T09:08:37;106.50;;;44.60;;
35576;SDS011;21680;52.400;16.920;2022-11-15T09:11:06;104.40;;;43.30;;
35576;SDS011;21680;52.400;16.920;2022-11-15T09:13:33;119.50;;;45.90;;
35576;SDS011;21680;52.400;16.920;2022-11-15T09:16:00;111.50;;;46.00;;
35576;SDS011;21680;52.400;16.920;2022-11-15T09:18:26;102.80;;;41.50;;
35576;SDS011;21680;52.400;16.920;2022-11-15T09:20:59;115.00;;;43.90;;
35576;SDS011;21680;52.400;16.920;2022-11-15T09:23:25;108.70;;;39.80;;
35576;SDS011;21680;52.400;16.920;2022-11-15T09:25:51;105.50;;;44.60;;
35576;SDS011;21680;52.400;16.920;2022-11-15T09:28:17;105.10;;;43.20;;
35576;SDS011;21680;52.400;16.920;2022-11-15T09:30:42;104.70;;;41.00;;
35576;SDS011;21680;52.400;16.920;2022-11-15T09:33:08;106.90;;;44.40;;
35576;SDS011;21680;52.400;16.920;2022-11-15T09:35:34;105.70;;;45.30;;
35576;SDS011;21680;52.400;16.920;2022-11-15T09:37:59;100.90;;;43.00;;
35576;SDS011;21680;52.400;16.920;2022-11-15T09:40:25;119.00;;;46.00;;
35576;SDS011;21680;52.400;16.920;2022-11-15T09:50:57;98.10;;;41.50;;
35576;SDS011;21680;52.400;16.920;2022-11-15T09:56:14;96.80;;;39.80;;
35576;SDS011;21680;52.400;16.920;2022-11-15T10:01:22;109.70;;;44.90;;
35576;SDS011;21680;52.400;16.920;2022-11-15T10:04:01;108.40;;;42.60;;
35576;SDS011;21680;52.400;16.920;2022-11-15T10:06:27;108.90;;;44.60;;
35576;SDS011;21680;52.400;16.920;2022-11-15T10:11:41;101.80;;;40.90;;
35576;SDS011;21680;52.400;16.920;2022-11-15T10:24:46;99.80;;;40.60;;
35576;SDS011;21680;52.400;16.920;2022-11-15T10:27:16;97.90;;;42.70;;
35576;SDS011;21680;52.400;16.920;2022-11-15T10:29:50;90.20;;;38.10;;
35576;SDS011;21680;52.400;16.920;2022-11-15T10:32:19;101.10;;;41.30;;
35576;SDS011;21680;52.400;16.920;2022-11-15T10:34:46;98.40;;;40.30;;
35576;SDS011;21680;52.400;16.920;2022-11-15T10:37:13;90.50;;;37.80;;
35576;SDS011;21680;52.400;16.920;2022-11-15T10:39:39;88.70;;;39.30;;
35576;SDS011;21680;52.400;16.920;2022-11-15T10:44:53;85.80;;;37.80;;
35576;SDS011;21680;52.400;16.920;2022-11-15T10:49:57;81.20;;;38.10;;
35576;SDS011;21680;52.400;16.920;2022-11-15T10:52:25;85.00;;;36.80;;
35576;SDS011;21680;52.400;16.920;2022-11-15T10:57:38;87.80;;;36.70;;
35576;SDS011;21680;52.400;16.920;2022-11-15T11:00:27;89.70;;;38.80;;
35576;SDS011;21680;52.400;16.920;2022-11-15T11:05:26;92.00;;;39.10;;
35576;SDS011;21680;52.400;16.920;2022-11-15T11:10:29;94.00;;;40.40;;
35576;SDS011;21680;52.400;16.920;2022-11-15T11:12:54;85.50;;;37.20;;
35576;SDS011;21680;52.400;16.920;2022-11-15T11:15:20;96.10;;;39.80;;
35576;SDS011;21680;52.400;16.920;2022-11-15T11:17:57;83.10;;;37.80;;
35576;SDS011;21680;52.400;16.920;2022-11-15T11:20:41;84.00;;;37.80;;
35576;SDS011;21680;52.400;16.920;2022-11-15T11:26:05;93.90;;;42.50;;
35576;SDS011;21680;52.400;16.920;2022-11-15T11:28:48;95.00;;;41.70;;
35576;SDS011;21680;52.400;16.920;2022-11-15T11:43:47;93.10;;;41.50;;
35576;SDS011;21680;52.400;16.920;2022-11-15T11:49:12;111.40;;;43.80;;
35576;SDS011;21680;52.400;16.920;2022-11-15T11:51:46;97.20;;;43.30;;
35576;SDS011;21680;52.400;16.920;2022-11-15T11:54:29;101.00;;;43.40;;
35576;SDS011;21680;52.400;16.920;2022-11-15T11:57:12;108.90;;;46.00;;
35576;SDS011;21680;52.400;16.920;2022-11-15T11:59:43;107.70;;;44.70;;
35576;SDS011;21680;52.400;16.920;2022-11-15T12:02:18;101.70;;;44.00;;
35576;SDS011;21680;52.400;16.920;2022-11-15T12:04:57;102.70;;;42.20;;
35576;SDS011;21680;52.400;16.920;2022-11-15T12:07:38;108.90;;;43.30;;
35576;SDS011;21680;52.400;16.920;2022-11-15T12:12:51;103.70;;;43.90;;
35576;SDS011;21680;52.400;16.920;2022-11-15T12:15:26;109.10;;;46.60;;
35576;SDS011;21680;52.400;16.920;2022-11-15T12:17:55;100.90;;;42.80;;
35576;SDS011;21680;52.400;16.920;2022-11-15T12:20:23;115.30;;;44.70;;
35576;SDS011;21680;52.400;16.920;2022-11-15T12:23:01;108.30;;;46.20;;
35576;SDS011;21680;52.400;16.920;2022-11-15T12:25:38;106.70;;;45.90;;
35576;SDS011;21680;52.400;16.920;2022-11-15T12:28:26;103.20;;;45.20;;
35576;SDS011;21680;52.400;16.920;2022-11-15T12:31:14;117.20;;;48.40;;
35576;SDS011;21680;52.400;16.920;2022-11-15T12:33:49;106.80;;;45.80;;
35576;SDS011;21680;52.400;16.920;2022-11-15T12:38:52;115.50;;;45.10;;
35576;SDS011;21680;52.400;16.920;2022-11-15T12:41:19;121.50;;;48.30;;
35576;SDS011;21680;52.400;16.920;2022-11-15T12:43:47;111.20;;;44.60;;
35576;SDS011;21680;52.400;16.920;2022-11-15T12:46:18;137.70;;;47.80;;
35576;SDS011;21680;52.400;16.920;2022-11-15T13:04:55;108.40;;;44.40;;
35576;SDS011;21680;52.400;16.920;2022-11-15T13:13:02;101.70;;;44.30;;
35576;SDS011;21680;52.400;16.920;2022-11-15T13:15:45;117.20;;;44.40;;
35576;SDS011;21680;52.400;16.920;2022-11-15T13:18:29;122.50;;;47.40;;
35576;SDS011;21680;52.400;16.920;2022-11-15T13:20:57;119.70;;;49.80;;
35576;SDS011;21680;52.400;16.920;2022-11-15T13:23:23;116.60;;;47.70;;
35576;SDS011;21680;52.400;16.920;2022-11-15T13:25:54;123.80;;;49.90;;
35576;SDS011;21680;52.400;16.920;2022-11-15T13:30:59;122.90;;;49.70;;
35576;SDS011;21680;52.400;16.920;2022-11-15T13:33:37;118.60;;;48.20;;
35576;SDS011;21680;52.400;16.920;2022-11-15T13:38:39;110.30;;;45.80;;
35576;SDS011;21680;52.400;16.920;2022-11-15T13:41:22;116.60;;;46.50;;
35576;SDS011;21680;52.400;16.920;2022-11-15T13:43:50;113.30;;;44.90;;
35576;SDS011;21680;52.400;16.920;2022-11-15T13:46:20;110.20;;;45.60;;
35576;SDS011;21680;52.400;16.920;2022-11-15T13:51:34;115.70;;;45.90;;
35576;SDS011;21680;52.400;16.920;2022-11-15T13:56:28;117.20;;;48.00;;
35576;SDS011;21680;52.400;16.920;2022-11-15T13:58:56;103.00;;;43.20;;
35576;SDS011;21680;52.400;16.920;2022-11-15T14:01:21;109.90;;;42.90;;
35576;SDS011;21680;52.400;16.920;2022-11-15T14:03:52;117.60;;;46.80;;
35576;SDS011;21680;52.400;16.920;2022-11-15T14:06:21;121.00;;;48.80;;
35576;SDS011;21680;52.400;16.920;2022-11-15T14:11:32;115.60;;;44.80;;
35576;SDS011;21680;52.400;16.920;2022-11-15T14:14:19;109.20;;;45.30;;
35576;SDS011;21680;52.400;16.920;2022-11-15T14:16:46;115.30;;;46.60;;
35576;SDS011;21680;52.400;16.920;2022-11-15T14:24:36;121.30;;;47.90;;
35576;SDS011;21680;52.400;16.920;2022-11-15T14:29:50;122.20;;;47.40;;
35576;SDS011;21680;52.400;16.920;2022-11-15T14:32:29;122.90;;;49.20;;
35576;SDS011;21680;52.400;16.920;2022-11-15T14:35:02;122.40;;;49.80;;
35576;SDS011;21680;52.400;16.920;2022-11-15T14:37:32;131.50;;;50.10;;
35576;SDS011;21680;52.400;16.920;2022-11-15T14:40:00;125.70;;;49.30;;
35576;SDS011;21680;52.400;16.920;2022-11-15T14:42:26;130.70;;;50.90;;
35576;SDS011;21680;52.400;16.920;2022-11-15T14:44:51;131.60;;;49.70;;
35576;SDS011;21680;52.400;16.920;2022-11-15T14:47:17;127.00;;;47.20;;
35576;SDS011;21680;52.400;16.920;2022-11-15T14:49:43;129.10;;;50.40;;
35576;SDS011;21680;52.400;16.920;2022-11-15T14:52:25;113.90;;;46.90;;
35576;SDS011;21680;52.400;16.920;2022-11-15T14:54:55;100.00;;;41.00;;
35576;SDS011;21680;52.400;16.920;2022-11-15T14:57:23;117.20;;;45.60;;
35576;SDS011;21680;52.400;16.920;2022-11-15T14:59:48;115.50;;;46.30;;
35576;SDS011;21680;52.400;16.920;2022-11-15T15:02:18;123.30;;;48.50;;
35576;SDS011;21680;52.400;16.920;2022-11-15T15:04:46;134.80;;;49.20;;
35576;SDS011;21680;52.400;16.920;2022-11-15T15:07:11;131.10;;;49.90;;
35576;SDS011;21680;52.400;16.920;2022-11-15T15:09:37;124.40;;;48.40;;
35576;SDS011;21680;52.400;16.920;2022-11-15T15:12:03;131.20;;;50.30;;
35576;SDS011;21680;52.400;16.920;2022-11-15T15:14:29;134.10;;;50.70;;
35576;SDS011;21680;52.400;16.920;2022-11-15T15:16:55;126.80;;;48.40;;
35576;SDS011;21680;52.400;16.920;2022-11-15T15:19:20;132.80;;;49.60;;
35576;SDS011;21680;52.400;16.920;2022-11-15T15:21:45;126.70;;;48.80;;
35576;SDS011;21680;52.400;16.920;2022-11-15T15:24:14;146.80;;;47.40;;
35576;SDS011;21680;52.400;16.920;2022-11-15T15:26:42;136.60;;;50.10;;
35576;SDS011;21680;52.400;16.920;2022-11-15T15:29:08;139.70;;;52.80;;
35576;SDS011;21680;52.400;16.920;2022-11-15T15:31:34;126.30;;;48.60;;
35576;SDS011;21680;52.400;16.920;2022-11-15T15:33:59;141.20;;;51.10;;
35576;SDS011;21680;52.400;16.920;2022-11-15T15:36:25;140.00;;;50.40;;
35576;SDS011;21680;52.400;16.920;2022-11-15T15:38:50;132.30;;;49.40;;
35576;SDS011;21680;52.400;16.920;2022-11-15T15:41:16;128.00;;;47.70;;
35576;SDS011;21680;52.400;16.920;2022-11-15T15:43:41;134.10;;;50.00;;
35576;SDS011;21680;52.400;16.920;2022-11-15T15:46:09;125.80;;;47.00;;
35576;SDS011;21680;52.400;16.920;2022-11-15T15:48:44;137.00;;;50.80;;
35576;SDS011;21680;52.400;16.920;2022-11-15T15:51:10;134.00;;;48.10;;
35576;SDS011;21680;52.400;16.920;2022-11-15T15:53:36;129.00;;;46.70;;
35576;SDS011;21680;52.400;16.920;2022-11-15T15:56:03;126.60;;;49.00;;
35576;SDS011;21680;52.400;16.920;2022-11-15T15:58:29;123.70;;;47.70;;
35576;SDS011;21680;52.400;16.920;2022-11-15T16:00:54;125.90;;;45.80;;
35576;SDS011;21680;52.400;16.920;2022-11-15T16:03:20;110.30;;;45.40;;
35576;SDS011;21680;52.400;16.920;2022-11-15T16:05:47;124.20;;;46.50;;
35576;SDS011;21680;52.400;16.920;2022-11-15T16:08:18;121.70;;;47.60;;
35576;SDS011;21680;52.400;16.920;2022-11-15T16:10:46;120.30;;;47.80;;
35576;SDS011;21680;52.400;16.920;2022-11-15T16:13:12;124.60;;;49.40;;
35576;SDS011;21680;52.400;16.920;2022-11-15T16:15:37;100.10;;;41.30;;
35576;SDS011;21680;52.400;16.920;2022-11-15T16:18:03;114.90;;;44.50;;
35576;SDS011;21680;52.400;16.920;2022-11-15T16:23:06;106.60;;;43.30;;
35576;SDS011;21680;52.400;16.920;2022-11-15T16:25:34;104.40;;;39.90;;
35576;SDS011;21680;52.400;16.920;2022-11-15T16:28:04;95.30;;;40.40;;
35576;SDS011;21680;52.400;16.920;2022-11-15T16:30:29;112.10;;;39.30;;